Time;durP1;ratioP1;P1;durP2;ratioP2;P2;SDS_P1;SDS_P2;PMS_P1;PMS_P2;Temp;Humidity;BMP_temperature;BMP_pressure;BME280_temperature;BME280_humidity;BME280_pressure;Samples;Min_cycle;Max_cycle;Signal;HPM_P1;HPM_P2
2022/09/28 00:01:50;;;;;;;0.20;0.20;;;10.70;72.80;;;;;;5087711;28;20036;-77
2022/09/28 00:04:16;;;;;;;0.20;0.20;;;10.70;72.80;;;;;;5087624;28;20055;-77
2022/09/28 00:06:42;;;;;;;0.20;0.20;;;10.70;72.80;;;;;;5087680;28;20097;-77
2022/09/28 00:09:08;;;;;;;;;;;10.60;72.70;;;;;;5086706;28;20032;-77
2022/09/28 00:11:34;;;;;;;0.10;0.10;;;10.60;72.70;;;;;;5086235;28;20423;-77
2022/09/28 00:14:02;;;;;;;0.20;0.20;;;10.60;72.60;;;;;;5087429;28;20020;-77
2022/09/28 00:16:33;;;;;;;0.20;0.20;;;10.60;72.70;;;;;;5086134;28;20028;-78
2022/09/28 00:19:00;;;;;;;0.20;0.20;;;10.50;72.70;;;;;;5086134;28;20107;-78
2022/09/28 00:21:31;;;;;;;0.20;0.20;;;10.50;72.70;;;;;;5087833;28;20016;-77
2022/09/28 00:24:11;;;;;;;0.20;0.20;;;10.60;72.80;;;;;;5087299;28;20370;-77
2022/09/28 00:26:50;;;;;;;0.20;0.20;;;10.60;72.90;;;;;;5085784;28;20028;-77
2022/09/28 00:29:30;;;;;;;0.20;0.20;;;10.60;72.80;;;;;;5087409;28;20114;-78
2022/09/28 00:32:02;;;;;;;0.20;0.20;;;10.60;72.80;;;;;;5087490;28;20020;-78
2022/09/28 00:34:33;;;;;;;0.20;0.20;;;10.60;72.70;;;;;;5087361;28;20048;-77
2022/09/28 00:37:00;;;;;;;0.30;0.30;;;10.60;72.70;;;;;;5069805;28;20031;-78
2022/09/28 00:39:26;;;;;;;0.30;0.30;;;10.50;72.70;;;;;;5087143;28;20046;-77
2022/09/28 00:41:52;;;;;;;0.30;0.30;;;10.50;72.70;;;;;;5087308;28;20024;-78
2022/09/28 00:44:21;;;;;;;0.30;0.30;;;10.50;73.20;;;;;;5085897;28;20432;-78
2022/09/28 00:46:53;;;;;;;0.20;0.20;;;10.40;72.70;;;;;;5086034;28;20028;-78
2022/09/28 00:49:29;;;;;;;0.28;0.28;;;10.40;72.80;;;;;;5088593;28;20024;-78
2022/09/28 00:51:54;;;;;;;0.25;0.25;;;10.40;72.80;;;;;;5089780;28;20024;-77
2022/09/28 00:54:21;;;;;;;0.30;0.30;;;10.40;73.10;;;;;;5089604;28;20044;-77
2022/09/28 00:56:47;;;;;;;;;;;10.40;72.70;;;;;;5091412;28;20042;-77
2022/09/28 00:59:14;;;;;;;0.30;0.30;;;10.40;72.70;;;;;;5089759;28;20011;-77
2022/09/28 01:01:40;;;;;;;0.30;0.30;;;10.30;72.60;;;;;;5090963;28;20043;-77
2022/09/28 01:04:06;;;;;;;0.30;0.30;;;10.30;72.60;;;;;;5090889;28;20017;-77
2022/09/28 01:06:35;;;;;;;0.40;0.40;;;10.20;72.60;;;;;;5072567;28;20028;-78
2022/09/28 01:09:04;;;;;;;0.30;0.30;;;10.20;72.60;;;;;;5090801;28;20099;-77
2022/09/28 01:11:36;;;;;;;0.30;0.30;;;10.20;72.60;;;;;;5090785;28;20020;-77
2022/09/28 01:14:02;;;;;;;0.40;0.40;;;10.10;72.60;;;;;;5090599;28;20222;-77
2022/09/28 01:16:44;;;;;;;0.40;0.40;;;10.10;72.70;;;;;;5089229;28;20486;-77
2022/09/28 01:19:28;;;;;;;0.40;0.40;;;10.20;72.80;;;;;;5090464;28;20035;-77
2022/09/28 01:22:13;;;;;;;0.40;0.40;;;10.20;72.80;;;;;;5090576;28;20066;-77
2022/09/28 01:24:44;;;;;;;0.40;0.40;;;10.20;72.80;;;;;;5088984;28;20020;-77
2022/09/28 01:27:21;;;;;;;0.40;0.40;;;10.30;72.80;;;;;;5088901;28;20052;-78
2022/09/28 01:30:09;;;;;;;0.47;0.47;;;10.30;72.80;;;;;;5090397;28;20024;-77
2022/09/28 01:32:54;;;;;;;0.40;0.40;;;10.40;72.80;;;;;;5090340;28;20487;-78
2022/09/28 01:35:59;;;;;;;0.30;0.30;;;10.40;72.70;;;;;;5090291;28;20046;-77
2022/09/28 01:38:36;;;;;;;0.40;0.40;;;10.50;72.70;;;;;;5087656;28;20132;-78
2022/09/28 01:41:03;;;;;;;0.40;0.40;;;10.50;72.70;;;;;;5089908;28;20407;-78
2022/09/28 01:43:35;;;;;;;0.50;0.50;;;10.50;72.60;;;;;;5088724;28;20517;-77
2022/09/28 01:46:19;;;;;;;0.40;0.40;;;10.50;73.00;;;;;;5088825;28;20543;-78
2022/09/28 01:48:58;;;;;;;0.50;0.50;;;10.40;72.60;;;;;;5090006;28;20051;-77
2022/09/28 01:51:50;;;;;;;0.47;0.47;;;10.40;72.60;;;;;;5090008;28;20066;-77
2022/09/28 01:54:35;;;;;;;0.40;0.40;;;10.30;72.60;;;;;;5089979;28;20064;-77
2022/09/28 01:57:19;;;;;;;0.50;0.50;;;10.30;72.70;;;;;;5088584;28;20026;-78
2022/09/28 02:00:19;;;;;;;0.50;0.50;;;10.40;72.90;;;;;;5089727;28;20095;-78
2022/09/28 02:02:57;;;;;;;0.50;0.50;;;10.40;72.80;;;;;;5084096;28;20438;-77
2022/09/28 02:05:31;;;;;;;0.50;0.50;;;10.50;72.70;;;;;;5089598;28;20027;-77
2022/09/28 02:08:16;;;;;;;0.50;0.50;;;10.50;72.70;;;;;;5089656;28;20032;-77
2022/09/28 02:11:04;;;;;;;0.50;0.50;;;10.40;72.70;;;;;;5089592;28;20063;-77
2022/09/28 02:13:36;;;;;;;0.55;0.55;;;10.40;72.70;;;;;;5084789;28;20032;-78
2022/09/28 02:16:04;;;;;;;0.40;0.40;;;10.40;72.60;;;;;;5088082;28;20374;-77
2022/09/28 02:18:31;;;;;;;0.50;0.50;;;10.40;72.60;;;;;;5088317;28;20476;-78
2022/09/28 02:21:31;;;;;;;0.60;0.60;;;10.30;72.60;;;;;;5088168;28;20024;-77
2022/09/28 02:24:02;;;;;;;0.50;0.50;;;10.30;72.70;;;;;;5088565;28;20035;-77
2022/09/28 02:26:38;;;;;;;0.50;0.50;;;10.40;72.80;;;;;;5087760;28;20024;-78
2022/09/28 02:29:03;;;;;;;0.60;0.60;;;10.40;72.90;;;;;;5087899;28;20031;-78
2022/09/28 02:31:30;;;;;;;0.45;0.45;;;10.40;72.80;;;;;;5089289;28;20040;-77
2022/09/28 02:33:56;;;;;;;0.50;0.50;;;10.50;72.80;;;;;;5087992;28;20067;-77
2022/09/28 02:36:25;;;;;;;0.60;0.60;;;10.50;72.80;;;;;;5088925;28;20133;-78
2022/09/28 02:38:51;;;;;;;0.60;0.60;;;10.50;72.80;;;;;;5087719;28;20016;-77
2022/09/28 02:41:23;;;;;;;0.70;0.70;;;10.60;72.80;;;;;;5087813;28;20063;-77
2022/09/28 02:44:07;;;;;;;0.70;0.70;;;10.60;72.80;;;;;;5088868;28;20028;-77
2022/09/28 02:47:01;;;;;;;0.70;0.70;;;10.60;72.80;;;;;;5088893;28;20032;-78
2022/09/28 02:49:42;;;;;;;0.60;0.60;;;10.60;72.80;;;;;;5088926;28;20020;-77
2022/09/28 02:52:46;;;;;;;0.60;0.60;;;10.70;72.80;;;;;;5089024;28;20020;-78
2022/09/28 02:55:38;;;;;;;0.60;0.60;;;10.70;72.80;;;;;;5079202;28;20036;-77
2022/09/28 02:58:04;;;;;;;0.60;0.60;;;10.70;72.80;;;;;;5087397;28;20031;-77
2022/09/28 03:00:33;;;;;;;0.65;0.65;;;10.70;72.80;;;;;;5087331;28;20038;-78
2022/09/28 03:03:12;;;;;;;0.70;0.70;;;10.70;72.80;;;;;;5087313;28;20035;-77
2022/09/28 03:06:02;;;;;;;0.52;0.52;;;10.80;72.90;;;;;;5088587;28;20543;-77
2022/09/28 03:08:53;;;;;;;0.50;0.50;;;10.80;72.90;;;;;;5087184;28;20023;-77
2022/09/28 03:11:29;;;;;;;0.70;0.70;;;10.90;73.00;;;;;;5088049;28;20017;-77
2022/09/28 03:13:55;;;;;;;0.60;0.60;;;10.90;72.90;;;;;;5087537;28;20063;-77
2022/09/28 03:16:21;;;;;;;0.65;0.65;;;10.90;72.80;;;;;;5086869;28;20160;-78
2022/09/28 03:18:47;;;;;;;0.52;0.52;;;10.80;72.70;;;;;;5088355;28;20158;-77
2022/09/28 03:21:14;;;;;;;0.70;0.70;;;10.70;72.80;;;;;;5088379;28;20105;-77
2022/09/28 03:23:40;;;;;;;0.60;0.60;;;10.60;72.80;;;;;;5086889;28;20024;-77
2022/09/28 03:26:11;;;;;;;0.60;0.60;;;10.60;72.90;;;;;;5086817;28;20481;-78
2022/09/28 03:28:37;;;;;;;0.50;0.50;;;10.60;73.00;;;;;;5087937;28;20052;-77
2022/09/28 03:31:03;;;;;;;0.75;0.75;;;10.60;73.10;;;;;;5086990;28;20050;-77
2022/09/28 03:33:28;;;;;;;0.70;0.70;;;10.70;73.10;;;;;;5087998;28;20032;-78
2022/09/28 03:35:54;;;;;;;0.70;0.70;;;10.70;73.00;;;;;;5086879;28;20025;-77
2022/09/28 03:38:20;;;;;;;0.60;0.60;;;10.70;73.00;;;;;;5086654;28;20568;-77
2022/09/28 03:40:54;;;;;;;0.60;0.60;;;10.60;72.90;;;;;;5088057;28;20493;-77
2022/09/28 03:43:20;;;;;;;0.70;0.70;;;10.60;73.00;;;;;;5086734;28;20052;-77
2022/09/28 03:45:59;;;;;;;0.65;0.65;;;10.60;73.00;;;;;;5087696;28;20028;-78
2022/09/28 03:48:31;;;;;;;0.65;0.65;;;10.60;73.00;;;;;;5087525;28;20139;-77
2022/09/28 03:50:59;;;;;;;0.60;0.60;;;10.70;73.00;;;;;;5087684;28;20020;-77
2022/09/28 03:53:25;;;;;;;0.60;0.60;;;10.70;73.00;;;;;;5086028;28;20024;-78
2022/09/28 03:55:52;;;;;;;0.60;0.60;;;10.60;72.80;;;;;;5086146;28;20618;-78
2022/09/28 03:58:19;;;;;;;0.60;0.60;;;10.60;72.80;;;;;;5087562;28;20402;-77
2022/09/28 04:00:46;;;;;;;0.70;0.70;;;10.50;72.80;;;;;;5086416;28;20577;-77
2022/09/28 04:03:12;;;;;;;0.80;0.80;;;10.40;72.90;;;;;;5087753;28;20051;-77
2022/09/28 04:05:37;;;;;;;0.80;0.80;;;10.40;73.00;;;;;;5087566;28;20054;-77
2022/09/28 04:08:03;;;;;;;0.70;0.70;;;10.40;73.10;;;;;;5086296;28;20028;-77
2022/09/28 04:10:29;;;;;;;0.70;0.70;;;10.40;73.00;;;;;;5086316;28;20032;-77
2022/09/28 04:12:56;;;;;;;0.70;0.70;;;10.40;73.10;;;;;;5087548;28;20523;-78
2022/09/28 04:15:23;;;;;;;0.80;0.80;;;10.50;73.10;;;;;;5087605;28;20492;-77
2022/09/28 04:17:49;;;;;;;0.77;0.77;;;10.50;73.10;;;;;;5087484;28;20024;-77
2022/09/28 04:20:15;;;;;;;0.70;0.70;;;10.40;72.90;;;;;;5069585;28;20027;-78
2022/09/28 04:22:41;;;;;;;0.70;0.70;;;10.40;72.90;;;;;;5086097;28;20040;-78
2022/09/28 04:25:07;;;;;;;0.70;0.70;;;10.40;72.90;;;;;;5088820;28;20381;-78
2022/09/28 04:30:17;;;;;;;0.80;0.80;;;10.30;72.80;;;;;;5091572;28;20499;-78
2022/09/28 04:32:46;;;;;;;0.70;0.70;;;10.30;72.80;;;;;;5090099;28;20103;-78
2022/09/28 04:35:11;;;;;;;0.80;0.80;;;10.20;72.80;;;;;;5091333;28;20028;-77
2022/09/28 04:37:37;;;;;;;0.80;0.80;;;10.20;72.90;;;;;;5091336;28;20358;-77
2022/09/28 04:40:03;;;;;;;0.90;0.90;;;10.20;73.00;;;;;;5091400;28;20032;-78
2022/09/28 04:42:29;;;;;;;1.00;1.00;;;10.20;73.00;;;;;;5089859;28;20028;-78
2022/09/28 04:44:56;;;;;;;0.93;0.93;;;10.20;73.00;;;;;;5091234;28;20039;-78
2022/09/28 04:47:22;;;;;;;0.80;0.80;;;10.30;73.00;;;;;;5089902;28;20460;-77
2022/09/28 04:49:48;;;;;;;0.95;0.95;;;10.30;73.00;;;;;;5089624;28;20124;-77
2022/09/28 04:52:14;;;;;;;0.90;0.90;;;10.30;73.00;;;;;;5072801;28;20036;-77
2022/09/28 04:54:39;;;;;;;0.90;0.90;;;10.30;72.90;;;;;;5089492;28;20081;-78
2022/09/28 04:57:05;;;;;;;1.00;1.00;;;10.30;72.90;;;;;;5090975;28;20452;-78
2022/09/28 04:59:31;;;;;;;1.00;1.00;;;10.30;72.90;;;;;;5089551;28;20024;-77
2022/09/28 05:01:57;;;;;;;0.90;0.90;;;10.20;72.80;;;;;;5089564;28;20032;-78
2022/09/28 05:04:22;;;;;;;0.90;0.90;;;10.20;72.80;;;;;;5090715;28;20047;-78
2022/09/28 05:06:48;;;;;;;0.90;0.90;;;10.10;72.80;;;;;;5090629;28;20101;-78
2022/09/28 05:09:14;;;;;;;0.90;0.90;;;10.00;73.20;;;;;;5090709;28;20397;-78
2022/09/28 05:11:40;;;;;;;0.98;0.98;;;9.90;72.80;;;;;;5089325;28;20028;-77
2022/09/28 05:14:06;;;;;;;1.02;1.02;;;9.80;72.80;;;;;;5090702;28;20047;-77
2022/09/28 05:16:35;;;;;;;1.00;1.00;;;9.80;72.90;;;;;;5089228;28;20451;-77
2022/09/28 05:19:01;;;;;;;1.10;1.10;;;9.70;72.90;;;;;;5090526;28;20126;-77
2022/09/28 05:21:28;;;;;;;1.05;1.05;;;9.70;72.90;;;;;;5090607;28;20539;-77
2022/09/28 05:23:55;;;;;;;1.10;1.10;;;9.70;72.90;;;;;;5090451;28;20048;-78
2022/09/28 05:26:22;;;;;;;1.30;1.20;;;9.60;72.90;;;;;;5090427;28;20032;-78
2022/09/28 05:28:47;;;;;;;1.10;1.10;;;9.60;72.90;;;;;;5090849;28;20044;-77
2022/09/28 05:31:13;;;;;;;1.10;1.10;;;9.60;73.00;;;;;;5090361;28;20495;-78
2022/09/28 05:33:39;;;;;;;1.50;1.40;;;9.60;73.00;;;;;;5090145;28;20082;-77
2022/09/28 05:36:09;;;;;;;1.40;1.30;;;9.70;73.50;;;;;;5088265;28;20481;-77
2022/09/28 05:38:35;;;;;;;1.30;1.20;;;9.80;73.10;;;;;;5088980;28;20036;-77
2022/09/28 05:41:01;;;;;;;1.10;1.10;;;9.80;73.10;;;;;;5090180;28;20031;-77
2022/09/28 05:43:27;;;;;;;1.30;1.20;;;9.90;73.10;;;;;;5088831;28;20026;-77
2022/09/28 05:45:52;;;;;;;1.30;1.20;;;10.00;73.00;;;;;;5090460;28;20020;-78
2022/09/28 05:48:18;;;;;;;1.30;1.20;;;10.00;73.00;;;;;;5089835;28;20032;-77
2022/09/28 05:50:48;;;;;;;1.10;1.10;;;10.00;72.90;;;;;;5071787;28;20024;-77
2022/09/28 05:53:14;;;;;;;1.40;1.30;;;10.10;72.90;;;;;;5088511;28;20055;-77
2022/09/28 05:55:40;;;;;;;1.30;1.20;;;10.10;73.00;;;;;;5088236;28;20597;-77
2022/09/28 05:58:06;;;;;;;1.10;1.10;;;10.10;73.50;;;;;;5089604;28;20107;-77
2022/09/28 06:00:33;;;;;;;1.40;1.30;;;10.20;73.00;;;;;;5088284;28;20024;-78
2022/09/28 06:03:04;;;;;;;1.10;1.10;;;10.30;73.00;;;;;;5091385;28;20432;-77
2022/09/28 06:05:33;;;;;;;1.30;1.20;;;10.30;73.00;;;;;;5091528;28;20424;-77
2022/09/28 06:07:59;;;;;;;1.30;1.20;;;10.40;73.00;;;;;;5090275;28;20020;-78
2022/09/28 06:10:26;;;;;;;1.50;1.40;;;10.30;72.90;;;;;;5071700;28;20395;-77
2022/09/28 06:12:56;;;;;;;1.17;1.13;;;10.40;72.90;;;;;;5089441;28;20031;-77
2022/09/28 06:15:24;;;;;;;1.17;1.10;;;10.40;72.90;;;;;;5088301;28;20029;-78
2022/09/28 06:18:00;;;;;;;1.50;1.40;;;10.40;73.00;;;;;;5089217;28;20024;-78
2022/09/28 06:20:28;;;;;;;1.23;1.13;;;10.30;73.00;;;;;;5089454;28;20020;-78
2022/09/28 06:22:54;;;;;;;1.40;1.30;;;10.30;72.90;;;;;;5087786;28;20024;-78
2022/09/28 06:25:21;;;;;;;;;;;10.30;72.90;;;;;;5089510;28;20016;-77
2022/09/28 06:27:58;;;;;;;1.50;1.40;;;10.20;72.90;;;;;;5087540;28;19916;-78
2022/09/28 06:30:25;;;;;;;1.60;1.50;;;10.10;72.90;;;;;;5089313;28;20016;-77
2022/09/28 06:32:56;;;;;;;1.23;1.13;;;10.10;72.90;;;;;;5087598;28;20435;-78
2022/09/28 06:35:24;;;;;;;1.50;1.40;;;10.00;72.90;;;;;;5088377;28;20039;-78
2022/09/28 06:37:51;;;;;;;1.70;1.60;;;10.00;73.10;;;;;;5089086;28;20027;-77
2022/09/28 06:40:18;;;;;;;1.30;1.20;;;9.90;73.00;;;;;;5087099;28;20041;-77
2022/09/28 06:42:44;;;;;;;1.50;1.40;;;9.90;73.10;;;;;;5086624;28;20495;-78
2022/09/28 06:45:10;;;;;;;1.60;1.50;;;9.90;73.10;;;;;;5070130;28;20024;-77
2022/09/28 06:47:36;;;;;;;1.48;1.38;;;9.90;73.20;;;;;;5087743;28;20367;-77
2022/09/28 06:50:02;;;;;;;;;;;10.00;73.20;;;;;;5087234;28;20542;-78
2022/09/28 06:52:28;;;;;;;1.30;1.20;;;10.00;73.30;;;;;;5087659;28;20271;-78
2022/09/28 06:54:54;;;;;;;1.38;1.27;;;10.10;73.30;;;;;;5087140;28;20058;-78
2022/09/28 06:57:19;;;;;;;1.48;1.38;;;10.20;73.20;;;;;;5088309;28;20338;-78
2022/09/28 06:59:45;;;;;;;1.50;1.40;;;10.30;73.20;;;;;;5069679;28;20024;-78
2022/09/28 07:02:13;;;;;;;1.50;1.40;;;10.40;73.20;;;;;;5086791;28;20473;-78
2022/09/28 07:04:42;;;;;;;1.50;1.40;;;10.50;73.30;;;;;;5086644;28;20508;-77
2022/09/28 07:07:11;;;;;;;1.50;1.40;;;10.70;73.20;;;;;;5088250;28;20077;-77
2022/09/28 07:09:37;;;;;;;1.40;1.30;;;10.70;73.10;;;;;;5086229;28;20028;-77
2022/09/28 07:12:03;;;;;;;1.50;1.40;;;10.70;73.00;;;;;;5069254;28;20024;-78
2022/09/28 07:14:31;;;;;;;;;;;10.70;73.00;;;;;;5086342;28;20036;-78
2022/09/28 07:16:57;;;;;;;1.40;1.30;;;10.70;73.00;;;;;;5087578;28;19908;-78
2022/09/28 07:19:22;;;;;;;1.48;1.38;;;10.70;72.90;;;;;;5088019;28;20028;-78
2022/09/28 07:21:51;;;;;;;1.48;1.38;;;10.70;73.00;;;;;;5088154;28;20528;-77
2022/09/28 07:24:17;;;;;;;1.40;1.30;;;10.60;73.00;;;;;;5086293;28;20056;-77
2022/09/28 07:26:44;;;;;;;1.30;1.20;;;10.70;73.20;;;;;;5086446;28;20449;-77
2022/09/28 07:29:10;;;;;;;1.10;1.10;;;10.70;73.40;;;;;;5086458;28;20038;-78
2022/09/28 07:31:36;;;;;;;0.82;0.82;;;10.90;73.70;;;;;;5086776;28;20032;-78
2022/09/28 07:34:03;;;;;;;0.82;0.82;;;11.10;73.90;;;;;;5088146;28;20020;-78
2022/09/28 07:36:33;;;;;;;0.77;0.77;;;11.50;74.30;;;;;;5086307;28;20062;-78
2022/09/28 07:39:02;;;;;;;0.90;0.90;;;11.90;74.30;;;;;;5087612;28;20073;-78
2022/09/28 07:41:31;;;;;;;0.80;0.80;;;12.20;73.80;;;;;;5087347;28;20031;-78
2022/09/28 07:44:04;;;;;;;0.60;0.60;;;12.40;73.50;;;;;;5069083;28;20026;-78
2022/09/28 07:46:36;;;;;;;0.70;0.70;;;12.50;73.50;;;;;;5081767;28;20028;-78
2022/09/28 07:49:05;;;;;;;0.50;0.50;;;12.60;73.30;;;;;;5064640;28;20549;-77
2022/09/28 07:51:32;;;;;;;0.80;0.80;;;12.60;73.30;;;;;;5064391;28;20103;-78
2022/09/28 07:53:58;;;;;;;0.50;0.50;;;12.70;73.60;;;;;;5064133;28;20116;-78
2022/09/28 07:56:24;;;;;;;0.30;0.30;;;12.90;73.90;;;;;;5064874;28;20402;-78
2022/09/28 07:58:50;;;;;;;0.40;0.40;;;13.20;74.10;;;;;;5065813;28;20028;-78
2022/09/28 08:01:18;;;;;;;0.30;0.30;;;13.40;74.00;;;;;;5066688;28;20032;-79
2022/09/28 08:03:44;;;;;;;0.30;0.30;;;13.70;74.00;;;;;;5066234;28;20070;-78
2022/09/28 08:06:11;;;;;;;;;;;14.00;73.80;;;;;;5070488;28;20031;-78
2022/09/28 08:08:42;;;;;;;;;;;14.20;73.70;;;;;;5076315;28;19904;-78
2022/09/28 08:11:09;;;;;;;0.20;0.20;;;14.30;73.40;;;;;;5082703;28;19977;-76
2022/09/28 08:13:36;;;;;;;0.20;0.20;;;14.30;74.00;;;;;;5085131;28;20111;-76
2022/09/28 08:16:02;;;;;;;0.10;0.10;;;14.40;73.60;;;;;;5077699;28;20032;-76
2022/09/28 08:18:29;;;;;;;0.15;0.15;;;14.50;73.60;;;;;;5076173;28;20032;-76
2022/09/28 08:23:39;;;;;;;0.10;0.10;;;14.40;73.60;;;;;;5075191;28;20070;-76
2022/09/28 08:26:06;;;;;;;0.10;0.10;;;14.40;73.80;;;;;;5075993;28;20426;-77
2022/09/28 08:28:31;;;;;;;;;;;14.60;74.10;;;;;;5077067;28;20494;-79
2022/09/28 08:31:02;;;;;;;0.10;0.10;;;14.70;74.00;;;;;;5075291;28;20282;-80
2022/09/28 08:33:28;;;;;;;0.20;0.20;;;14.90;73.80;;;;;;5073763;28;20082;-79
2022/09/28 08:35:56;;;;;;;0.00;0.00;;;14.90;73.80;;;;;;5074786;28;20025;-80
2022/09/28 08:38:23;;;;;;;0.20;0.20;;;15.00;73.90;;;;;;5074115;28;20398;-78
2022/09/28 08:41:16;;;;;;;0.10;0.10;;;15.10;73.90;;;;;;5074204;28;20060;-79
2022/09/28 08:44:11;;;;;;;0.10;0.10;;;15.20;73.70;;;;;;5075370;28;20024;-79
2022/09/28 08:46:44;;;;;;;0.10;0.10;;;15.30;73.70;;;;;;5074801;28;20051;-80
2022/09/28 08:49:17;;;;;;;0.10;0.10;;;15.40;73.70;;;;;;5081869;28;20121;-80
2022/09/28 08:52:15;;;;;;;0.00;0.00;;;15.40;73.70;;;;;;5077304;28;20068;-80
2022/09/28 08:54:50;;;;;;;0.05;0.05;;;15.50;73.60;;;;;;5076392;28;20024;-80
2022/09/28 08:57:46;;;;;;;0.10;0.10;;;15.70;74.00;;;;;;5069524;28;20029;-80
2022/09/28 09:00:44;;;;;;;0.00;0.00;;;16.20;74.00;;;;;;5064377;28;20025;-80
2022/09/28 09:03:14;;;;;;;0.00;0.00;;;16.30;73.40;;;;;;5061482;28;20043;-80
2022/09/28 09:05:55;;;;;;;0.00;0.00;;;16.30;73.40;;;;;;5064787;28;20116;-79
2022/09/28 09:08:35;;;;;;;0.00;0.00;;;16.30;73.50;;;;;;5066553;28;20032;-79
2022/09/28 09:11:12;;;;;;;0.00;0.00;;;16.40;73.60;;;;;;5067277;28;20123;-80
2022/09/28 09:14:03;;;;;;;0.00;0.00;;;16.40;73.60;;;;;;5072161;28;20017;-77
2022/09/28 09:16:35;;;;;;;0.00;0.00;;;16.50;73.70;;;;;;5077680;28;20090;-80
2022/09/28 09:19:21;;;;;;;0.00;0.00;;;16.60;73.60;;;;;;5080754;28;20024;-81
2022/09/28 09:22:01;;;;;;;0.00;0.00;;;16.70;73.60;;;;;;5079668;28;20028;-79
2022/09/28 09:24:43;;;;;;;0.00;0.00;;;16.90;73.90;;;;;;5081546;28;20022;-81
2022/09/28 09:27:49;;;;;;;0.00;0.00;;;17.50;75.20;;;;;;5082566;28;20040;-79
2022/09/28 09:30:19;;;;;;;0.00;0.00;;;18.10;74.20;;;;;;5092750;28;20035;-78
2022/09/28 09:33:23;;;;;;;0.00;0.00;;;18.20;73.40;;;;;;5092399;28;20059;-79
2022/09/28 09:36:08;;;;;;;0.00;0.00;;;17.90;72.80;;;;;;5080444;28;20072;-79
2022/09/28 09:39:14;;;;;;;0.00;0.00;;;17.50;73.20;;;;;;5070429;28;20027;-78
2022/09/28 09:41:48;;;;;;;0.00;0.00;;;17.30;73.70;;;;;;5081770;28;20012;-78
2022/09/28 09:44:55;;;;;;;0.00;0.00;;;17.40;73.80;;;;;;5074401;28;20439;-78
2022/09/28 09:47:38;;;;;;;0.00;0.00;;;17.30;73.80;;;;;;5070859;28;20117;-78
2022/09/28 09:50:28;;;;;;;0.00;0.00;;;17.40;73.90;;;;;;5070936;28;20469;-78
2022/09/28 09:53:28;;;;;;;0.00;0.00;;;17.40;73.80;;;;;;5075404;28;20020;-78
2022/09/28 09:56:18;;;;;;;0.00;0.00;;;17.50;73.80;;;;;;5070410;28;20482;-78
2022/09/28 09:58:49;;;;;;;0.00;0.00;;;17.60;73.70;;;;;;5073263;28;20033;-75
2022/09/28 10:01:18;;;;;;;0.00;0.00;;;17.60;73.60;;;;;;5070765;28;20020;-77
2022/09/28 10:03:47;;;;;;;0.00;0.00;;;17.50;73.50;;;;;;5069201;28;20072;-76
2022/09/28 10:06:40;;;;;;;0.00;0.00;;;17.40;73.70;;;;;;5070305;28;20016;-77
2022/09/28 10:09:15;;;;;;;0.00;0.00;;;17.50;74.10;;;;;;5067574;28;20029;-78
2022/09/28 10:11:48;;;;;;;0.00;0.00;;;17.50;73.90;;;;;;5071063;28;20033;-75
2022/09/28 10:14:16;;;;;;;0.00;0.00;;;17.40;74.00;;;;;;5070013;28;20396;-80
2022/09/28 10:16:43;;;;;;;0.00;0.00;;;17.40;74.30;;;;;;5070876;28;20385;-79
2022/09/28 10:19:12;;;;;;;0.00;0.00;;;17.50;74.20;;;;;;5069982;28;20055;-79
2022/09/28 10:21:39;;;;;;;0.00;0.00;;;17.70;74.10;;;;;;5052802;28;20029;-78
2022/09/28 10:24:16;;;;;;;0.00;0.00;;;17.80;74.00;;;;;;5070345;28;20025;-77
2022/09/28 10:26:47;;;;;;;0.00;0.00;;;17.90;74.10;;;;;;5070578;28;20105;-79
2022/09/28 10:29:21;;;;;;;0.00;0.00;;;18.00;74.00;;;;;;5070337;28;20035;-79
2022/09/28 10:31:49;;;;;;;0.00;0.00;;;18.00;73.70;;;;;;5070309;28;20396;-76
2022/09/28 10:34:17;;;;;;;0.00;0.00;;;17.90;73.60;;;;;;5069361;28;20049;-78
2022/09/28 10:36:49;;;;;;;0.00;0.00;;;17.80;73.50;;;;;;5069949;28;20464;-79
2022/09/28 10:39:45;;;;;;;0.00;0.00;;;17.50;73.40;;;;;;5069895;28;20031;-78
2022/09/28 10:42:16;;;;;;;0.00;0.00;;;17.20;73.70;;;;;;5068772;28;20027;-76
2022/09/28 10:44:50;;;;;;;0.00;0.00;;;16.90;73.60;;;;;;5068027;28;20028;-79
2022/09/28 10:47:19;;;;;;;0.00;0.00;;;16.70;73.80;;;;;;5068528;28;20024;-79
2022/09/28 10:49:48;;;;;;;0.00;0.00;;;16.50;73.80;;;;;;5069779;28;20033;-76
2022/09/28 10:52:35;;;;;;;0.00;0.00;;;16.40;74.00;;;;;;5068041;28;20557;-77
2022/09/28 10:55:22;;;;;;;0.00;0.00;;;16.40;74.70;;;;;;5068030;28;20362;-77
2022/09/28 10:57:47;;;;;;;0.20;0.10;;;16.80;75.10;;;;;;5069741;28;20382;-79
2022/09/28 11:00:37;;;;;;;0.00;0.00;;;17.10;74.60;;;;;;5069420;28;20037;-78
2022/09/28 11:03:04;;;;;;;0.00;0.00;;;17.30;74.20;;;;;;5065924;28;20354;-77
2022/09/28 11:05:31;;;;;;;0.00;0.00;;;17.50;74.60;;;;;;5070127;28;20041;-77
2022/09/28 11:07:59;;;;;;;0.00;0.00;;;17.80;75.10;;;;;;5071561;28;20037;-79
2022/09/28 11:10:28;;;;;;;0.00;0.00;;;18.60;75.50;;;;;;5069120;28;20539;-78
2022/09/28 11:12:54;;;;;;;0.00;0.00;;;19.10;74.50;;;;;;5067919;28;20136;-79
2022/09/28 11:15:24;;;;;;;0.00;0.00;;;19.20;73.70;;;;;;5068990;28;20085;-78
2022/09/28 11:17:50;;;;;;;0.00;0.00;;;19.10;73.30;;;;;;5068844;28;20056;-79
2022/09/28 11:20:25;;;;;;;0.00;0.00;;;18.80;73.30;;;;;;5051092;28;20440;-80
2022/09/28 11:22:54;;;;;;;0.00;0.00;;;18.80;73.70;;;;;;5068738;28;20025;-78
2022/09/28 11:25:26;;;;;;;0.00;0.00;;;19.00;74.10;;;;;;5068894;28;20016;-79
2022/09/28 11:27:51;;;;;;;0.00;0.00;;;19.20;74.10;;;;;;5069000;28;20048;-79
2022/09/28 11:30:22;;;;;;;0.00;0.00;;;19.20;73.60;;;;;;5069142;28;20028;-78
2022/09/28 11:32:49;;;;;;;0.00;0.00;;;19.10;73.50;;;;;;5067428;28;20026;-78
2022/09/28 11:35:54;;;;;;;0.00;0.00;;;19.00;73.50;;;;;;5068729;28;20048;-78
2022/09/28 11:38:41;;;;;;;0.00;0.00;;;18.70;73.40;;;;;;5067202;28;20048;-79
2022/09/28 11:41:15;;;;;;;0.00;0.00;;;18.30;73.10;;;;;;5068437;28;20017;-75
2022/09/28 11:43:52;;;;;;;0.00;0.00;;;17.90;73.10;;;;;;5067609;28;20117;-72
2022/09/28 11:46:35;;;;;;;0.00;0.00;;;17.50;73.30;;;;;;5068795;28;20021;-79
2022/09/28 11:49:14;;;;;;;0.00;0.00;;;17.30;73.60;;;;;;5068440;28;20020;-78
2022/09/28 11:51:42;;;;;;;0.00;0.00;;;17.20;73.80;;;;;;5068412;28;20020;-78
2022/09/28 11:54:36;;;;;;;0.00;0.00;;;17.10;74.00;;;;;;5068490;28;20029;-78
2022/09/28 11:57:04;;;;;;;0.00;0.00;;;17.10;74.40;;;;;;5068046;28;20028;-78
2022/09/28 11:59:35;;;;;;;0.00;0.00;;;17.00;74.70;;;;;;5066598;28;20033;-78
2022/09/28 12:02:43;;;;;;;0.00;0.00;;;17.10;74.80;;;;;;5068386;28;20029;-78
2022/09/28 12:05:20;;;;;;;0.00;0.00;;;17.20;74.70;;;;;;5045912;28;20025;-78
2022/09/28 12:07:55;;;;;;;0.00;0.00;;;17.30;75.30;;;;;;5066174;28;20048;-78
2022/09/28 12:10:52;;;;;;;0.00;0.00;;;17.80;75.70;;;;;;5067906;28;20552;-78
2022/09/28 12:13:25;;;;;;;0.00;0.00;;;18.00;75.00;;;;;;5060271;28;20036;-78
2022/09/28 12:16:05;;;;;;;0.00;0.00;;;18.50;76.00;;;;;;5068281;28;20032;-78
2022/09/28 12:19:04;;;;;;;0.00;0.00;;;19.40;75.70;;;;;;5065808;28;20058;-78
2022/09/28 12:21:42;;;;;;;0.00;0.00;;;19.60;74.80;;;;;;5068172;28;20040;-79
2022/09/28 12:24:26;;;;;;;0.00;0.00;;;19.50;74.00;;;;;;5068197;28;20025;-77
2022/09/28 12:27:07;;;;;;;0.00;0.00;;;19.10;73.60;;;;;;5068266;28;20390;-76
2022/09/28 12:29:39;;;;;;;0.00;0.00;;;18.60;73.40;;;;;;5068088;28;20033;-75
2022/09/28 12:32:24;;;;;;;0.00;0.00;;;17.90;73.50;;;;;;5068181;28;20108;-75
2022/09/28 12:34:50;;;;;;;0.00;0.00;;;17.40;74.50;;;;;;5068264;28;20021;-76
2022/09/28 12:37:28;;;;;;;0.00;0.00;;;17.00;74.40;;;;;;5068115;28;20433;-78
2022/09/28 12:40:25;;;;;;;0.00;0.00;;;16.70;74.60;;;;;;5068707;28;20031;-78
2022/09/28 12:43:05;;;;;;;0.00;0.00;;;16.50;75.10;;;;;;5066730;28;20445;-81
2022/09/28 12:45:49;;;;;;;0.00;0.00;;;16.40;75.00;;;;;;5070341;28;20087;-77
2022/09/28 12:48:53;;;;;;;0.00;0.00;;;16.50;75.60;;;;;;5072955;28;20025;-80
2022/09/28 12:51:36;;;;;;;0.00;0.00;;;17.20;76.70;;;;;;5070809;28;20039;-78
2022/09/28 12:54:05;;;;;;;0.00;0.00;;;17.70;75.60;;;;;;5072378;28;20032;-77
2022/09/28 12:56:52;;;;;;;0.00;0.00;;;17.90;75.20;;;;;;5071064;28;20076;-79
2022/09/28 12:59:35;;;;;;;0.00;0.00;;;18.20;75.50;;;;;;5071603;28;20031;-80
2022/09/28 13:02:44;;;;;;;0.00;0.00;;;19.00;76.40;;;;;;5069946;28;20082;-75
2022/09/28 13:05:33;;;;;;;0.00;0.00;;;20.10;76.20;;;;;;5069085;28;20029;-77
2022/09/28 13:08:15;;;;;;;0.00;0.00;;;21.00;75.90;;;;;;5070399;28;20413;-77
2022/09/28 13:10:59;;;;;;;0.00;0.00;;;20.80;74.60;;;;;;5071951;28;20028;-76
2022/09/28 13:13:51;;;;;;;0.00;0.00;;;19.60;73.90;;;;;;5070813;28;20036;-76
2022/09/28 13:16:23;;;;;;;0.00;0.00;;;18.40;74.30;;;;;;5070829;28;20477;-77
2022/09/28 13:18:58;;;;;;;0.00;0.00;;;17.40;74.90;;;;;;5071703;28;20028;-77
2022/09/28 13:21:48;;;;;;;0.00;0.00;;;16.70;75.50;;;;;;5072210;28;20027;-76
2022/09/28 13:24:24;;;;;;;0.00;0.00;;;16.20;75.90;;;;;;5070526;28;20454;-77
2022/09/28 13:26:50;;;;;;;0.00;0.00;;;16.00;76.20;;;;;;5071373;28;20101;-77
2022/09/28 13:29:18;;;;;;;0.00;0.00;;;15.90;76.20;;;;;;5053733;28;20490;-78